Map

Track Data

SID SEASON NUMBER BASIN SUBBASIN NAME ISO_TIME NATURE LAT LON WMO_WIND WMO_PRES WMO_AGENCY TRACK_TYPE DIST2LAND LANDFALL IFLAG USA_AGENCY USA_ATCF_ID USA_LAT USA_LON USA_RECORD USA_STATUS USA_WIND USA_PRES USA_SSHS USA_R34_NE USA_R34_SE USA_R34_SW USA_R34_NW USA_R50_NE USA_R50_SE USA_R50_SW USA_R50_NW USA_R64_NE USA_R64_SE USA_R64_SW USA_R64_NW USA_POCI USA_ROCI USA_RMW USA_EYE TOKYO_LAT TOKYO_LON TOKYO_GRADE TOKYO_WIND TOKYO_PRES TOKYO_R50_DIR TOKYO_R50_LONG TOKYO_R50_SHORT TOKYO_R30_DIR TOKYO_R30_LONG TOKYO_R30_SHORT TOKYO_LAND CMA_LAT CMA_LON CMA_CAT CMA_WIND CMA_PRES HKO_LAT HKO_LON HKO_CAT HKO_WIND HKO_PRES NEWDELHI_LAT NEWDELHI_LON NEWDELHI_GRADE NEWDELHI_WIND NEWDELHI_PRES NEWDELHI_CI NEWDELHI_DP NEWDELHI_POCI REUNION_LAT REUNION_LON REUNION_TYPE REUNION_WIND REUNION_PRES REUNION_TNUM REUNION_CI REUNION_RMW REUNION_R34_NE REUNION_R34_SE REUNION_R34_SW REUNION_R34_NW REUNION_R50_NE REUNION_R50_SE REUNION_R50_SW REUNION_R50_NW REUNION_R64_NE REUNION_R64_SE REUNION_R64_SW REUNION_R64_NW BOM_LAT BOM_LON BOM_TYPE BOM_WIND BOM_PRES BOM_TNUM BOM_CI BOM_RMW BOM_R34_NE BOM_R34_SE BOM_R34_SW BOM_R34_NW BOM_R50_NE BOM_R50_SE BOM_R50_SW BOM_R50_NW BOM_R64_NE BOM_R64_SE BOM_R64_SW BOM_R64_NW BOM_ROCI BOM_POCI BOM_EYE BOM_POS_METHOD BOM_PRES_METHOD NADI_LAT NADI_LON NADI_CAT NADI_WIND NADI_PRES WELLINGTON_LAT WELLINGTON_LON WELLINGTON_WIND WELLINGTON_PRES DS824_LAT DS824_LON DS824_STAGE DS824_WIND DS824_PRES TD9636_LAT TD9636_LON TD9636_STAGE TD9636_WIND TD9636_PRES TD9635_LAT TD9635_LON TD9635_WIND TD9635_PRES TD9635_ROCI NEUMANN_LAT NEUMANN_LON NEUMANN_CLASS NEUMANN_WIND NEUMANN_PRES MLC_LAT MLC_LON MLC_CLASS MLC_WIND MLC_PRES USA_GUST BOM_GUST BOM_GUST_PER REUNION_GUST REUNION_GUST_PER USA_SEAHGT USA_SEARAD_NE USA_SEARAD_SE USA_SEARAD_SW USA_SEARAD_NW STORM_SPEED STORM_DIR
1958326N10119 1958 110 WP MM NOT_NAMED 1958-11-22 00:00:00 TS 10.0000 119.200 main 11 0 __O___________ -1 10.0000 119.200 2 38 998 3 5
1958326N10119 1958 110 WP MM NOT_NAMED 1958-11-22 03:00:00 TS 10.1475 119.202 main 0 0 __P___________ -1 10.1475 119.202 2 38 998 3 0
1958326N10119 1958 110 WP MM NOT_NAMED 1958-11-22 06:00:00 TS 10.3000 119.200 main 0 0 __O___________ -1 10.3000 119.200 2 38 998 3 0
1958326N10119 1958 110 WP MM NOT_NAMED 1958-11-22 09:00:00 TS 10.4575 119.193 main 10 10 __P___________ -1 10.4575 119.193 2 38 998 3 0
1958326N10119 1958 110 WP MM NOT_NAMED 1958-11-22 12:00:00 TS 10.6000 119.200 main 10 10 __O___________ -1 10.6000 119.200 2 38 998 2 12
1958326N10119 1958 110 WP MM NOT_NAMED 1958-11-22 15:00:00 TS 10.6925 119.243 main 10 0 __P___________ -1 10.6925 119.243 2 38 996 2 27
1958326N10119 1958 110 WP MM NOT_NAMED 1958-11-22 18:00:00 TS 10.8000 119.300 main 0 0 __O___________ -1 10.8000 119.300 2 38 995 3 20
1958326N10119 1958 110 WP MM NOT_NAMED 1958-11-22 21:00:00 TS 10.9850 119.350 main 0 0 __P___________ -1 10.9850 119.350 2 38 995 4 13
1958326N10119 1958 110 WP MM NOT_NAMED 1958-11-23 00:00:00 TS 11.2000 119.400 main 0 0 __O___________ -1 11.2000 119.400 2 38 995 4 9
1958326N10119 1958 110 WP MM NOT_NAMED 1958-11-23 03:00:00 TS 11.3925 119.420 main 15 15 __P___________ -1 11.3925 119.420 2 43 993 4 13
1958326N10119 1958 110 WP MM NOT_NAMED 1958-11-23 06:00:00 TS 11.6000 119.500 main 33 33 __O___________ -1 11.6000 119.500 3 48 992 6 29
1958326N10119 1958 110 WP MM NOT_NAMED 1958-11-23 09:00:00 TS 11.8875 119.697 main 68 68 __P___________ -1 11.8875 119.697 3 48 992 7 44
1958326N10119 1958 110 WP MM NOT_NAMED 1958-11-23 12:00:00 TS 12.1000 120.000 main 99 73 __O___________ -1 12.1000 120.000 3 48 992 7 71
1958326N10119 1958 110 WP MM NOT_NAMED 1958-11-23 15:00:00 TS 12.1176 120.393 main 73 39 __P___________ -1 12.1176 120.393 3 48 992 8 97
1958326N10119 1958 110 WP MM NOT_NAMED 1958-11-23 18:00:00 TS 12.0000 120.800 main 39 31 __O___________ -1 12.0000 120.800 3 48 992 8 113
1958326N10119 1958 110 WP MM NOT_NAMED 1958-11-23 21:00:00 TS 11.8149 121.115 main 44 44 __P___________ -1 11.8149 121.115 3 43 995 7 124
1958326N10119 1958 110 WP MM NOT_NAMED 1958-11-24 00:00:00 TS 11.6000 121.400 main 49 35 __O___________ -1 11.6000 121.400 2 38 998 7 124
1958326N10119 1958 110 WP MM NOT_NAMED 1958-11-24 03:00:00 TS 11.4424 121.670 main 43 10 __P___________ -1 11.4424 121.670 2 38 998 7 117
1958326N10119 1958 110 WP MM NOT_NAMED 1958-11-24 06:00:00 TS 11.3000 122.000 main 10 0 __O___________ -1 11.3000 122.000 2 38 998 8 113
1958326N10119 1958 110 WP MM NOT_NAMED 1958-11-24 09:00:00 TS 11.1200 122.463 main 0 0 __P___________ -1 11.1200 122.463 2 38 999 10 107
1958326N10119 1958 110 WP MM NOT_NAMED 1958-11-24 12:00:00 TS 11.0000 123.000 main 0 0 __O___________ -1 11.0000 123.000 2 38 1000 10 97
1958326N10119 1958 110 WP MM NOT_NAMED 1958-11-24 15:00:00 TS 10.9973 123.520 main 11 0 __P___________ -1 10.9973 123.520 2 33 1000 11 85
1958326N10119 1958 110 WP MM NOT_NAMED 1958-11-24 18:00:00 TS 11.1000 124.100 main 10 0 __O___________ -1 11.1000 124.100 1 29 1000 13 78
1958326N10119 1958 110 WP MM NOT_NAMED 1958-11-24 21:00:00 TS 11.2700 124.785 main 0 0 __P___________ -1 11.2700 124.785 1 29 1001 14 74
1958326N10119 1958 110 WP MM NOT_NAMED 1958-11-25 00:00:00 TS 11.5000 125.500 main 0 0 __O___________ -1 11.5000 125.500 1 29 1002 14 71
1958326N10119 1958 110 WP MM NOT_NAMED 1958-11-25 03:00:00 TS 11.7477 126.167 main 73 73 __P___________ -1 11.7477 126.167 1 29 1002 14 69
1958326N10119 1958 110 WP MM NOT_NAMED 1958-11-25 06:00:00 TS 12.0000 126.800 main 143 __O___________ -1 12.0000 126.800 1 29 1002 13 68

Digital Typhoon Data and Search

About IBTrACS Database

This database is a web-friendly format of International Best Track Archive for Climate Stewardship (IBTrACS), a global best track data archive curated by NOAA dating back to 1842.

Updated: 2021-12-01